createdAt,value
2023-04-03T00:00:04.810Z,10.24
2023-04-03T00:01:10.727Z,10.23
2023-04-03T00:02:14.061Z,10.21
2023-04-03T00:03:18.661Z,10.23
2023-04-03T00:04:21.074Z,10.22
2023-04-03T00:05:23.407Z,10.22
2023-04-03T00:06:26.269Z,10.24
2023-04-03T00:07:28.833Z,10.26
2023-04-03T00:08:30.994Z,10.25
2023-04-03T00:09:35.300Z,10.24
2023-04-03T00:10:42.696Z,10.25
2023-04-03T00:11:46.044Z,10.24
2023-04-03T00:12:48.400Z,10.24
2023-04-03T00:13:50.681Z,10.24
2023-04-03T00:14:54.889Z,10.25
2023-04-03T00:15:57.115Z,10.24
2023-04-03T00:16:59.629Z,10.23
2023-04-03T00:18:03.698Z,10.25
2023-04-03T00:19:06.306Z,10.25
2023-04-03T00:20:09.656Z,10.24
2023-04-03T00:21:14.141Z,10.22
2023-04-03T00:22:16.494Z,10.23
2023-04-03T00:23:19.866Z,10.22
2023-04-03T00:24:21.982Z,10.21
2023-04-03T00:25:24.149Z,10.20
2023-04-03T00:26:26.669Z,10.20
2023-04-03T00:27:29.053Z,10.19
2023-04-03T00:28:31.424Z,10.20
2023-04-03T00:29:33.694Z,10.21
2023-04-03T00:30:39.561Z,10.21
2023-04-03T00:31:43.167Z,10.20
2023-04-03T00:32:45.971Z,10.19
2023-04-03T00:33:48.785Z,10.19
2023-04-03T00:34:51.114Z,10.20
2023-04-03T00:35:56.811Z,10.19
2023-04-03T00:37:00.972Z,10.21
2023-04-03T00:39:13.316Z,10.31
2023-04-03T00:40:16.568Z,10.16
2023-04-03T00:41:20.979Z,10.19
2023-04-03T00:42:24.064Z,10.21
2023-04-03T00:43:28.293Z,10.20
2023-04-03T00:44:38.737Z,10.21
2023-04-03T00:45:43.778Z,10.20
2023-04-03T00:46:46.405Z,10.20
2023-04-03T00:47:52.018Z,10.20
2023-04-03T00:48:57.458Z,10.21
2023-04-03T00:50:04.959Z,10.20
2023-04-03T00:51:18.605Z,10.20
2023-04-03T00:52:26.598Z,10.20
2023-04-03T00:53:34.097Z,10.21
2023-04-03T00:54:37.346Z,10.22
2023-04-03T00:55:40.320Z,10.21
2023-04-03T00:56:44.342Z,10.22
2023-04-03T00:57:46.787Z,10.21
2023-04-03T00:58:55.382Z,10.19
2023-04-03T01:01:13.722Z,10.30
2023-04-03T01:02:17.257Z,10.16
2023-04-03T01:03:21.844Z,10.16
2023-04-03T01:05:51.326Z,10.30
2023-04-03T01:07:00.169Z,10.16
2023-04-03T01:08:04.014Z,10.20
2023-04-03T01:09:06.726Z,10.23
2023-04-03T01:10:13.444Z,10.25
2023-04-03T01:11:15.896Z,10.25
2023-04-03T01:12:28.203Z,10.27
2023-04-03T01:13:33.596Z,10.25
2023-04-03T01:14:40.070Z,10.25
2023-04-03T01:15:42.755Z,10.26
2023-04-03T01:18:05.501Z,10.35
2023-04-03T01:19:11.396Z,10.22
2023-04-03T01:20:55.318Z,10.22
2023-04-03T01:22:18.087Z,10.25
2023-04-03T01:24:45.821Z,10.39
2023-04-03T01:25:53.595Z,10.24
2023-04-03T01:26:56.919Z,10.23
2023-04-03T01:27:59.215Z,10.24
2023-04-03T01:29:03.625Z,10.24
2023-04-03T01:30:09.395Z,10.25
2023-04-03T01:33:03.869Z,10.38
2023-04-03T01:34:11.091Z,10.22
2023-04-03T01:35:14.694Z,10.24
2023-04-03T01:37:30.112Z,10.36
2023-04-03T01:38:32.482Z,10.21
2023-04-03T01:39:37.705Z,10.23
2023-04-03T01:40:40.653Z,10.24
2023-04-03T01:41:43.616Z,10.25
2023-04-03T01:42:52.443Z,10.27
2023-04-03T01:43:55.089Z,10.28
2023-04-03T01:44:57.145Z,10.29
2023-04-03T01:45:59.225Z,10.29
2023-04-03T01:47:08.580Z,10.29
2023-04-03T01:48:11.495Z,10.28
2023-04-03T01:49:13.762Z,10.28
2023-04-03T01:50:20.110Z,10.29
2023-04-03T01:51:23.221Z,10.28
2023-04-03T01:52:25.908Z,10.27
2023-04-03T01:53:28.165Z,10.27
2023-04-03T01:54:30.335Z,10.27
2023-04-03T01:55:33.703Z,10.27
2023-04-03T01:56:36.829Z,10.28
2023-04-03T01:57:40.277Z,10.28
2023-04-03T01:58:44.582Z,10.28
2023-04-03T01:59:48.164Z,10.29
2023-04-03T02:00:53.681Z,10.29
2023-04-03T02:01:58.892Z,10.30
2023-04-03T02:03:03.435Z,10.29
2023-04-03T02:04:06.254Z,10.29
2023-04-03T02:05:10.129Z,10.28
2023-04-03T02:06:13.055Z,10.29
2023-04-03T02:07:17.264Z,10.30
2023-04-03T02:08:19.433Z,10.31
2023-04-03T02:09:22.069Z,10.31
2023-04-03T02:10:27.168Z,10.31
2023-04-03T02:11:33.989Z,10.32
2023-04-03T02:12:36.329Z,10.31
2023-04-03T02:13:39.464Z,10.29
2023-04-03T02:14:42.742Z,10.28
2023-04-03T02:15:49.053Z,10.29
2023-04-03T02:17:00.647Z,10.30
2023-04-03T02:18:02.976Z,10.30
2023-04-03T02:19:08.628Z,10.29
2023-04-03T02:20:15.355Z,10.27
2023-04-03T02:21:18.067Z,10.27
2023-04-03T02:22:22.121Z,10.27
2023-04-03T02:23:24.308Z,10.26
2023-04-03T02:24:26.842Z,10.27
2023-04-03T02:25:31.992Z,10.28
2023-04-03T02:26:34.699Z,10.31
2023-04-03T02:27:39.964Z,10.34
2023-04-03T02:28:42.442Z,10.40
2023-04-03T02:29:44.590Z,10.45
2023-04-03T02:30:48.419Z,10.51
2023-04-03T02:33:01.260Z,10.73
2023-04-03T02:34:03.994Z,10.62
2023-04-03T02:35:07.474Z,10.67
2023-04-03T02:36:12.097Z,10.73
2023-04-03T02:37:15.767Z,10.79
2023-04-03T02:38:19.115Z,10.84
2023-04-03T02:39:21.496Z,10.90
2023-04-03T02:40:25.493Z,10.95
2023-04-03T02:41:27.599Z,10.99
2023-04-03T02:42:32.323Z,11.03
2023-04-03T02:43:35.210Z,11.08
2023-04-03T02:44:39.342Z,11.10
2023-04-03T02:45:41.549Z,11.14
2023-04-03T02:46:44.041Z,11.16
2023-04-03T02:47:46.272Z,11.18
2023-04-03T02:48:48.683Z,11.22
2023-04-03T02:49:51.068Z,11.23
2023-04-03T02:50:53.433Z,11.25
2023-04-03T02:51:55.612Z,11.26
2023-04-03T02:52:57.782Z,11.31
2023-04-03T02:54:00.243Z,11.33
2023-04-03T02:55:05.252Z,11.37
2023-04-03T02:56:07.731Z,11.39
2023-04-03T02:57:09.954Z,11.39
2023-04-03T02:58:13.074Z,11.39
2023-04-03T02:59:16.622Z,11.40
2023-04-03T03:00:20.756Z,11.37
2023-04-03T03:01:23.175Z,11.34
2023-04-03T03:02:25.646Z,11.32
2023-04-03T03:03:28.391Z,11.29
2023-04-03T03:04:31.307Z,11.25
2023-04-03T03:05:34.324Z,11.21
2023-04-03T03:06:36.955Z,11.17
2023-04-03T03:07:39.246Z,11.14
2023-04-03T03:08:42.035Z,11.13
2023-04-03T03:09:44.419Z,11.10
2023-04-03T03:10:47.857Z,11.05
2023-04-03T03:11:50.474Z,11.03
2023-04-03T03:12:52.620Z,11.00
2023-04-03T03:13:54.900Z,10.96
2023-04-03T03:14:59.199Z,10.94
2023-04-03T03:16:02.305Z,10.90
2023-04-03T03:17:05.289Z,10.87
2023-04-03T03:18:08.512Z,10.86
2023-04-03T03:19:11.440Z,10.84
2023-04-03T03:20:14.123Z,10.80
2023-04-03T03:21:16.404Z,10.76
2023-04-03T03:22:20.075Z,10.75
2023-04-03T03:23:23.702Z,10.73
2023-04-03T03:24:25.929Z,10.73
2023-04-03T03:25:29.594Z,10.70
2023-04-03T03:26:32.341Z,10.69
2023-04-03T03:27:35.115Z,10.67
2023-04-03T03:28:38.901Z,10.67
2023-04-03T03:29:41.366Z,10.65
2023-04-03T03:30:44.704Z,10.63
2023-04-03T03:31:47.129Z,10.62
2023-04-03T03:32:49.558Z,10.61
2023-04-03T03:33:51.792Z,10.60
2023-04-03T03:34:54.701Z,10.59
2023-04-03T03:35:57.971Z,10.57
2023-04-03T03:37:00.393Z,10.59
2023-04-03T03:38:03.802Z,10.57
2023-04-03T03:39:07.756Z,10.57
2023-04-03T03:40:12.295Z,10.56
2023-04-03T03:41:14.581Z,10.55
2023-04-03T03:42:18.099Z,10.55
2023-04-03T03:43:20.371Z,10.54
2023-04-03T03:44:23.506Z,10.54
2023-04-03T03:45:25.771Z,10.54
2023-04-03T03:46:28.340Z,10.53
2023-04-03T03:47:32.161Z,10.52
2023-04-03T03:48:34.439Z,10.50
2023-04-03T03:49:37.215Z,10.51
2023-04-03T03:50:39.776Z,10.51
2023-04-03T03:51:42.244Z,10.51
2023-04-03T03:52:44.500Z,10.51
2023-04-03T03:53:47.334Z,10.51
2023-04-03T03:54:51.276Z,10.52
2023-04-03T03:55:53.549Z,10.52
2023-04-03T03:56:59.584Z,10.50
2023-04-03T03:58:02.004Z,10.51
2023-04-03T03:59:04.814Z,10.49
2023-04-03T04:00:09.287Z,10.50
2023-04-03T04:01:13.926Z,10.51
2023-04-03T04:02:17.981Z,10.50
2023-04-03T04:03:21.842Z,10.51
2023-04-03T04:04:24.332Z,10.49
2023-04-03T04:05:27.279Z,10.50
2023-04-03T04:06:30.138Z,10.48
2023-04-03T04:07:35.257Z,10.49
2023-04-03T04:08:37.887Z,10.48
2023-04-03T04:09:40.960Z,10.48
2023-04-03T04:10:44.364Z,10.49
2023-04-03T04:11:48.374Z,10.50
2023-04-03T04:12:52.312Z,10.49
2023-04-03T04:13:56.847Z,10.49
2023-04-03T04:15:00.853Z,10.50
2023-04-03T04:16:06.472Z,10.50
2023-04-03T04:17:08.851Z,10.48
2023-04-03T04:18:12.586Z,10.48
2023-04-03T04:19:16.616Z,10.47
2023-04-03T04:20:20.186Z,10.48
2023-04-03T04:21:22.989Z,10.45
2023-04-03T04:22:26.678Z,10.46
2023-04-03T04:23:29.507Z,10.45
2023-04-03T04:24:33.764Z,10.44
2023-04-03T04:25:37.975Z,10.44
2023-04-03T04:26:41.033Z,10.44
2023-04-03T04:27:45.583Z,10.42
2023-04-03T04:28:49.664Z,10.43
2023-04-03T04:29:54.316Z,10.43
2023-04-03T04:30:57.087Z,10.44
2023-04-03T04:32:01.032Z,10.45
2023-04-03T04:33:04.838Z,10.45
2023-04-03T04:34:08.794Z,10.45
2023-04-03T04:35:14.026Z,10.46
2023-04-03T04:36:17.925Z,10.46
2023-04-03T04:37:21.496Z,10.46
2023-04-03T04:38:23.758Z,10.46
2023-04-03T04:39:27.191Z,10.45
2023-04-03T04:40:31.351Z,10.46
2023-04-03T04:41:35.001Z,10.46
2023-04-03T04:42:38.529Z,10.46
2023-04-03T04:43:42.076Z,10.46
2023-04-03T04:44:45.652Z,10.46
2023-04-03T04:45:48.643Z,10.46
2023-04-03T04:46:54.025Z,10.47
2023-04-03T04:47:57.207Z,10.47
2023-04-03T04:48:59.786Z,10.45
2023-04-03T04:50:04.709Z,10.47
2023-04-03T04:51:07.478Z,10.47
2023-04-03T04:52:11.274Z,10.46
2023-04-03T04:53:15.312Z,10.46
2023-04-03T04:54:19.320Z,10.46
2023-04-03T04:55:22.151Z,10.46
2023-04-03T04:57:37.918Z,10.56
2023-04-03T04:58:40.474Z,10.41
2023-04-03T04:59:42.946Z,10.40
2023-04-03T05:00:45.759Z,10.43
2023-04-03T05:01:48.330Z,10.43
2023-04-03T05:02:52.066Z,10.43
2023-04-03T05:03:55.011Z,10.43
2023-04-03T05:04:57.910Z,10.45
2023-04-03T05:06:03.453Z,10.46
2023-04-03T05:07:06.683Z,10.46
2023-04-03T05:08:10.554Z,10.48
2023-04-03T05:09:13.607Z,10.47
2023-04-03T05:10:18.372Z,10.46
2023-04-03T05:11:21.450Z,10.47
2023-04-03T05:12:27.721Z,10.47
2023-04-03T05:13:32.250Z,10.48
2023-04-03T05:14:34.422Z,10.47
2023-04-03T05:15:38.726Z,10.47
2023-04-03T05:16:41.793Z,10.48
2023-04-03T05:17:45.011Z,10.48
2023-04-03T05:18:48.867Z,10.48
2023-04-03T05:19:53.035Z,10.49
2023-04-03T05:20:56.987Z,10.49
2023-04-03T05:22:00.869Z,10.48
2023-04-03T05:23:04.916Z,10.49
2023-04-03T05:24:10.127Z,10.48
2023-04-03T05:25:14.312Z,10.48
2023-04-03T05:26:19.124Z,10.49
2023-04-03T05:27:23.564Z,10.50
2023-04-03T05:28:27.701Z,10.51
2023-04-03T05:29:30.367Z,10.51
2023-04-03T05:30:34.214Z,10.53
2023-04-03T05:31:38.430Z,10.52
2023-04-03T05:32:42.130Z,10.53
2023-04-03T05:33:55.247Z,10.53
2023-04-03T05:34:59.397Z,10.54
2023-04-03T05:36:05.899Z,10.54
2023-04-03T05:37:10.163Z,10.55
2023-04-03T05:38:13.286Z,10.54
2023-04-03T05:39:15.858Z,10.54
2023-04-03T05:40:19.490Z,10.54
2023-04-03T05:41:23.738Z,10.54
2023-04-03T05:42:26.357Z,10.56
2023-04-03T05:43:28.649Z,10.55
2023-04-03T05:44:31.473Z,10.55
2023-04-03T05:45:34.807Z,10.55
2023-04-03T05:46:37.598Z,10.53
2023-04-03T05:47:41.514Z,10.55
2023-04-03T05:48:44.274Z,10.54
2023-04-03T05:49:48.441Z,10.55
2023-04-03T05:50:52.010Z,10.55
2023-04-03T05:51:56.467Z,10.56
2023-04-03T05:53:02.380Z,10.58
2023-04-03T05:54:19.355Z,10.57
2023-04-03T05:55:21.683Z,10.57
2023-04-03T05:56:24.250Z,10.60
2023-04-03T05:57:26.471Z,10.60
2023-04-03T05:58:29.020Z,10.61
2023-04-03T05:59:32.083Z,10.60
2023-04-03T06:00:35.028Z,10.62
2023-04-03T06:01:40.523Z,10.63
2023-04-03T06:02:43.623Z,10.64
2023-04-03T06:03:48.267Z,10.65
2023-04-03T06:04:50.884Z,10.65
2023-04-03T06:05:53.506Z,10.66
2023-04-03T06:06:57.652Z,10.67
2023-04-03T06:08:02.573Z,10.67
2023-04-03T06:09:13.156Z,10.68
2023-04-03T06:10:17.518Z,10.68
2023-04-03T06:11:20.918Z,10.68
2023-04-03T06:12:25.201Z,10.69
2023-04-03T06:13:27.607Z,10.68
2023-04-03T06:14:29.813Z,10.68
2023-04-03T06:15:32.474Z,10.67
2023-04-03T06:16:38.114Z,10.68
2023-04-03T06:17:42.785Z,10.68
2023-04-03T06:18:45.026Z,10.69
2023-04-03T06:19:48.622Z,10.67
2023-04-03T06:20:51.984Z,10.68
2023-04-03T06:21:55.851Z,10.69
2023-04-03T06:23:02.569Z,10.69
2023-04-03T06:24:08.417Z,10.69
2023-04-03T06:25:18.243Z,10.72
2023-04-03T06:26:21.765Z,10.70
2023-04-03T06:27:27.036Z,10.72
2023-04-03T06:28:32.393Z,10.72
2023-04-03T06:29:34.902Z,10.70
2023-04-03T06:30:40.421Z,10.72
2023-04-03T06:31:43.536Z,10.74
2023-04-03T06:32:46.206Z,10.74
2023-04-03T06:33:49.134Z,10.75
2023-04-03T06:34:53.816Z,10.76
2023-04-03T06:35:58.921Z,10.74
2023-04-03T06:37:02.899Z,10.75
2023-04-03T06:38:05.193Z,10.75
2023-04-03T06:39:15.422Z,10.75
2023-04-03T06:40:24.600Z,10.74
2023-04-03T06:41:28.066Z,10.74
2023-04-03T06:42:33.167Z,10.76
2023-04-03T06:43:42.025Z,10.75
2023-04-03T06:44:44.781Z,10.75
2023-04-03T06:45:49.021Z,10.74
2023-04-03T06:46:52.697Z,10.77
2023-04-03T06:47:54.792Z,10.77
2023-04-03T06:48:56.954Z,10.78
2023-04-03T06:49:58.992Z,10.79
2023-04-03T06:51:01.780Z,10.79
2023-04-03T06:52:04.477Z,10.78
2023-04-03T06:53:07.125Z,10.80
2023-04-03T06:54:09.376Z,10.82
2023-04-03T06:55:11.679Z,10.82
2023-04-03T06:56:15.029Z,10.83
2023-04-03T06:57:17.774Z,10.84
2023-04-03T06:58:21.834Z,10.85
2023-04-03T06:59:25.770Z,10.86
2023-04-03T07:00:28.273Z,10.85
2023-04-03T07:01:31.265Z,10.86
2023-04-03T07:02:35.895Z,10.87
2023-04-03T07:03:38.827Z,10.88
2023-04-03T07:04:41.551Z,10.88
2023-04-03T07:05:47.986Z,10.89
2023-04-03T07:06:50.533Z,10.88
2023-04-03T07:07:54.583Z,10.90
2023-04-03T07:08:57.239Z,10.89
2023-04-03T07:10:00.413Z,10.90
2023-04-03T07:12:18.632Z,11.03
2023-04-03T07:13:21.190Z,10.87
2023-04-03T07:14:23.247Z,10.91
2023-04-03T07:15:25.716Z,10.93
2023-04-03T07:16:28.586Z,10.94
2023-04-03T07:17:31.070Z,10.95
2023-04-03T07:18:36.364Z,10.95
2023-04-03T07:19:38.489Z,10.95
2023-04-03T07:20:40.892Z,10.95
2023-04-03T07:21:43.366Z,10.96
2023-04-03T07:22:45.464Z,10.98
2023-04-03T07:24:01.092Z,10.98
2023-04-03T07:25:06.007Z,11.00
2023-04-03T07:26:08.757Z,11.02
2023-04-03T07:27:11.068Z,11.02
2023-04-03T07:28:14.165Z,11.03
2023-04-03T07:29:16.618Z,11.04
2023-04-03T07:30:19.119Z,11.06
2023-04-03T07:31:21.745Z,11.07
2023-04-03T07:32:23.909Z,11.07
2023-04-03T07:33:27.365Z,11.08
2023-04-03T07:34:29.864Z,11.09
2023-04-03T07:35:31.915Z,11.10
2023-04-03T07:36:35.544Z,11.12
2023-04-03T07:37:40.870Z,11.14
2023-04-03T07:38:44.931Z,11.14
2023-04-03T07:39:49.318Z,11.15
2023-04-03T07:40:53.742Z,11.16
2023-04-03T07:41:55.923Z,11.18
2023-04-03T07:42:58.136Z,11.19
2023-04-03T07:44:00.314Z,11.19
2023-04-03T07:45:05.029Z,11.19
2023-04-03T07:46:08.264Z,11.21
2023-04-03T07:47:10.684Z,11.22
2023-04-03T07:48:13.727Z,11.23
2023-04-03T07:49:16.518Z,11.24
2023-04-03T07:50:19.452Z,11.25
2023-04-03T07:51:22.164Z,11.26
2023-04-03T07:52:25.635Z,11.29
2023-04-03T07:53:28.673Z,11.29
2023-04-03T07:54:30.923Z,11.28
2023-04-03T07:55:34.941Z,11.29
2023-04-03T07:56:38.531Z,11.28
2023-04-03T07:57:40.656Z,11.29
2023-04-03T07:58:42.708Z,11.30
2023-04-03T07:59:44.789Z,11.33
2023-04-03T08:02:03.142Z,11.47
2023-04-03T08:03:10.421Z,11.34
2023-04-03T08:04:12.984Z,11.37
2023-04-03T08:05:15.415Z,11.38
2023-04-03T08:06:20.027Z,11.39
2023-04-03T08:07:21.688Z,11.40
2023-04-03T08:08:24.292Z,11.41
2023-04-03T08:09:26.363Z,11.42
2023-04-03T08:10:31.550Z,11.42
2023-04-03T08:11:33.947Z,11.45
2023-04-03T08:12:37.086Z,11.45
2023-04-03T08:13:39.891Z,11.47
2023-04-03T08:14:43.148Z,11.49
2023-04-03T08:15:46.681Z,11.50
2023-04-03T08:16:49.475Z,11.52
2023-04-03T08:17:52.096Z,11.53
2023-04-03T08:18:55.853Z,11.52
2023-04-03T08:19:58.190Z,11.54
2023-04-03T08:21:00.567Z,11.55
2023-04-03T08:22:03.612Z,11.57
2023-04-03T08:23:06.988Z,11.58
2023-04-03T08:24:09.813Z,11.60
2023-04-03T08:25:12.218Z,11.61
2023-04-03T08:26:16.245Z,11.63
2023-04-03T08:27:18.331Z,11.64
2023-04-03T08:28:20.396Z,11.65
2023-04-03T08:29:22.689Z,11.66
2023-04-03T08:30:24.967Z,11.68
2023-04-03T08:31:27.226Z,11.69
2023-04-03T08:32:29.659Z,11.69
2023-04-03T08:33:32.187Z,11.72
2023-04-03T08:34:34.392Z,11.72
2023-04-03T08:35:41.183Z,11.73
2023-04-03T08:36:44.750Z,11.74
2023-04-03T08:37:46.994Z,11.75
2023-04-03T08:38:51.393Z,11.77
2023-04-03T08:39:54.879Z,11.77
2023-04-03T08:41:08.987Z,11.78
2023-04-03T08:42:27.076Z,11.80
2023-04-03T08:44:00.467Z,11.81
2023-04-03T08:45:22.679Z,11.83
2023-04-03T08:47:48.667Z,11.96
2023-04-03T08:48:52.033Z,11.81
2023-04-03T08:51:14.119Z,11.93
2023-04-03T08:52:19.546Z,11.79
2023-04-03T08:53:25.470Z,11.82
2023-04-03T08:54:36.832Z,11.85
2023-04-03T08:55:42.557Z,11.87
2023-04-03T08:56:45.277Z,11.86
2023-04-03T08:57:49.320Z,11.87
2023-04-03T08:58:55.123Z,11.88
2023-04-03T09:00:13.867Z,11.89
2023-04-03T09:01:22.132Z,11.91
2023-04-03T09:02:28.052Z,11.92
2023-04-03T09:03:32.989Z,11.92
2023-04-03T09:04:35.255Z,11.93
2023-04-03T09:05:43.936Z,11.93
2023-04-03T09:08:05.483Z,12.07
2023-04-03T09:09:16.116Z,11.93
2023-04-03T09:10:22.082Z,11.95
2023-04-03T09:13:10.099Z,12.10
2023-04-03T09:14:39.170Z,11.98
2023-04-03T09:15:42.358Z,12.02
2023-04-03T09:18:22.239Z,12.18
2023-04-03T09:19:28.067Z,12.07
2023-04-03T09:20:43.308Z,12.09
2023-04-03T09:21:46.672Z,12.12
2023-04-03T09:22:52.357Z,12.13
2023-04-03T09:26:31.438Z,12.27
2023-04-03T09:27:33.511Z,12.17
2023-04-03T09:28:49.151Z,12.19
2023-04-03T09:29:45.597Z,12.22
2023-04-03T09:30:48.118Z,12.26
2023-04-03T09:31:54.723Z,12.28
2023-04-03T09:32:57.905Z,12.30
2023-04-03T09:34:03.284Z,12.32
2023-04-03T09:36:42.419Z,12.49
2023-04-03T09:37:47.975Z,12.36
2023-04-03T09:39:05.311Z,12.40
2023-04-03T09:43:24.495Z,12.49
2023-04-03T09:44:34.234Z,12.34
2023-04-03T09:45:36.798Z,12.36
2023-04-03T09:46:40.783Z,12.35
2023-04-03T09:47:50.778Z,12.34
2023-04-03T09:50:17.042Z,12.42
2023-04-03T09:51:22.715Z,12.26
2023-04-03T09:52:28.055Z,12.27
2023-04-03T09:53:40.854Z,12.26
2023-04-03T09:54:44.908Z,12.26
2023-04-03T09:55:47.769Z,12.26
2023-04-03T09:58:49.637Z,12.24
2023-04-03T10:00:01.675Z,12.23
2023-04-03T10:01:06.485Z,12.23
2023-04-03T10:02:38.273Z,12.21
2023-04-03T10:03:40.971Z,12.20
2023-04-03T10:04:43.946Z,12.19
2023-04-03T10:05:47.485Z,12.16
2023-04-03T10:06:55.526Z,12.15
2023-04-03T10:08:17.038Z,12.13
2023-04-03T10:10:42.879Z,12.22
2023-04-03T10:12:11.382Z,12.08
2023-04-03T10:13:21.078Z,12.08
2023-04-03T10:14:32.888Z,12.10
2023-04-03T10:18:48.814Z,12.21
2023-04-03T10:20:01.114Z,12.08
2023-04-03T10:22:39.398Z,12.27
2023-04-03T10:23:52.044Z,12.15
2023-04-03T10:25:13.609Z,12.20
2023-04-03T10:26:53.010Z,12.23
2023-04-03T10:28:05.037Z,12.28
2023-04-03T10:29:13.736Z,12.32
2023-04-03T10:32:05.408Z,12.49
2023-04-03T10:33:34.454Z,12.37
2023-04-03T10:36:22.396Z,12.57
2023-04-03T10:37:29.788Z,12.44
2023-04-03T10:40:03.362Z,12.60
2023-04-03T10:41:37.587Z,12.46
2023-04-03T10:42:50.525Z,12.48
2023-04-03T10:44:25.600Z,12.51
2023-04-03T10:47:10.847Z,12.66
2023-04-03T10:48:22.637Z,12.49
2023-04-03T10:51:25.549Z,12.63
2023-04-03T10:54:27.348Z,12.61
2023-04-03T10:59:49.486Z,12.59
2023-04-03T11:00:54.914Z,12.44
2023-04-03T11:03:36.730Z,12.56
2023-04-03T11:04:44.992Z,12.42
2023-04-03T11:05:49.948Z,12.42
2023-04-03T11:08:36.762Z,12.53
2023-04-03T11:09:45.582Z,12.36
2023-04-03T11:10:52.193Z,12.38
2023-04-03T11:14:27.556Z,12.44
2023-04-03T11:15:31.360Z,12.28
2023-04-03T11:18:59.017Z,12.31
2023-04-03T11:20:17.105Z,12.31
2023-04-03T11:21:42.879Z,12.33
2023-04-03T11:24:33.946Z,12.54
2023-04-03T11:25:39.180Z,12.39
2023-04-03T11:26:43.001Z,12.41
2023-04-03T11:27:48.850Z,12.39
2023-04-03T11:30:39.527Z,12.55
2023-04-03T11:38:06.207Z,12.58
2023-04-03T11:39:21.193Z,12.43
2023-04-03T11:40:26.735Z,12.44
2023-04-03T11:41:31.708Z,12.46
2023-04-03T11:42:42.130Z,12.47
2023-04-03T11:44:00.199Z,12.48
2023-04-03T11:45:25.790Z,12.50
2023-04-03T11:46:55.640Z,12.52
2023-04-03T11:48:09.917Z,12.53
2023-04-03T11:49:05.494Z,12.54
2023-04-03T11:50:12.620Z,12.54
2023-04-03T11:51:21.412Z,12.54
2023-04-03T11:53:05.772Z,12.53
2023-04-03T11:55:24.857Z,12.64
2023-04-03T11:56:29.341Z,12.50
2023-04-03T11:59:21.311Z,12.64
2023-04-03T12:01:59.114Z,12.61
2023-04-03T12:03:05.817Z,12.47
2023-04-03T12:04:11.838Z,12.45
2023-04-03T12:05:29.932Z,12.46
2023-04-03T12:06:40.359Z,12.47
2023-04-03T12:07:42.578Z,12.48
2023-04-03T12:08:47.357Z,12.47
2023-04-03T12:09:56.094Z,12.47
2023-04-03T12:11:16.752Z,12.47
2023-04-03T12:12:29.622Z,12.47
2023-04-03T12:13:33.359Z,12.48
2023-04-03T12:14:36.151Z,12.47
2023-04-03T12:15:41.947Z,12.48
2023-04-03T12:16:50.830Z,12.48
2023-04-03T12:17:55.084Z,12.49
2023-04-03T12:19:03.497Z,12.50
2023-04-03T12:20:27.090Z,12.52
2023-04-03T12:21:51.686Z,12.53
2023-04-03T12:26:17.348Z,12.63
2023-04-03T12:27:28.822Z,12.49
2023-04-03T12:28:36.710Z,12.51
2023-04-03T12:29:48.591Z,12.51
2023-04-03T12:30:54.591Z,12.48
2023-04-03T12:32:26.584Z,12.50
2023-04-03T12:34:12.850Z,12.52
2023-04-03T12:36:01.276Z,12.53
2023-04-03T12:39:34.877Z,12.67
2023-04-03T12:40:42.469Z,12.52
2023-04-03T12:43:21.294Z,12.61
2023-04-03T12:44:27.916Z,12.47
2023-04-03T12:45:41.997Z,12.47
2023-04-03T12:48:07.277Z,12.58
2023-04-03T12:49:47.845Z,12.40
2023-04-03T12:50:54.496Z,12.38
2023-04-03T12:51:57.955Z,12.40
2023-04-03T12:53:07.225Z,12.40
2023-04-03T12:54:24.479Z,12.37
2023-04-03T12:55:26.589Z,12.38
2023-04-03T12:56:32.943Z,12.38
2023-04-03T12:57:36.181Z,12.36
2023-04-03T12:58:39.124Z,12.37
2023-04-03T12:59:42.297Z,12.35
2023-04-03T13:00:45.022Z,12.33
2023-04-03T13:03:24.125Z,12.41
2023-04-03T13:04:28.406Z,12.25
2023-04-03T13:05:33.977Z,12.23
2023-04-03T13:06:44.723Z,12.21
2023-04-03T13:08:01.192Z,12.17
2023-04-03T13:09:03.565Z,12.16
2023-04-03T13:10:12.759Z,12.15
2023-04-03T13:11:16.496Z,12.13
2023-04-03T13:12:18.662Z,12.11
2023-04-03T13:13:22.858Z,12.09
2023-04-03T13:14:27.062Z,12.08
2023-04-03T13:15:31.782Z,12.08
2023-04-03T13:16:34.257Z,12.10
2023-04-03T13:17:39.360Z,12.08
2023-04-03T13:18:42.187Z,12.08
2023-04-03T13:19:45.748Z,12.07
2023-04-03T13:20:49.258Z,12.08
2023-04-03T13:23:09.360Z,12.19
2023-04-03T13:24:15.445Z,12.02
2023-04-03T13:25:17.762Z,12.03
2023-04-03T13:26:23.855Z,12.02
2023-04-03T13:27:27.082Z,12.02
2023-04-03T13:28:32.198Z,11.99
2023-04-03T13:29:37.067Z,11.96
2023-04-03T13:30:41.297Z,11.95
2023-04-03T13:32:03.557Z,11.92
2023-04-03T13:34:41.396Z,12.03
2023-04-03T13:35:43.508Z,11.85
2023-04-03T13:36:52.372Z,11.84
2023-04-03T13:37:58.323Z,11.83
2023-04-03T13:39:04.301Z,11.81
2023-04-03T13:40:11.521Z,11.81
2023-04-03T13:41:34.071Z,11.82
2023-04-03T13:42:38.875Z,11.79
2023-04-03T13:43:43.162Z,11.79
2023-04-03T13:44:46.058Z,11.76
2023-04-03T13:46:12.886Z,11.75
2023-04-03T13:47:19.214Z,11.72
2023-04-03T13:48:23.883Z,11.70
2023-04-03T13:51:00.601Z,11.76
2023-04-03T13:52:08.427Z,11.57
2023-04-03T13:53:13.956Z,11.58
2023-04-03T13:55:35.754Z,11.67
2023-04-03T13:56:39.052Z,11.49
2023-04-03T13:59:34.815Z,11.66
2023-04-03T14:00:53.503Z,11.50
2023-04-03T14:02:08.925Z,11.49
2023-04-03T14:03:37.648Z,11.48
2023-04-03T14:04:46.542Z,11.47
2023-04-03T14:05:49.693Z,11.48
2023-04-03T14:06:52.842Z,11.45
2023-04-03T14:07:57.903Z,11.44
2023-04-03T14:09:00.252Z,11.42
2023-04-03T14:10:03.569Z,11.42
2023-04-03T14:11:06.862Z,11.41
2023-04-03T14:13:24.084Z,11.40
2023-04-03T14:15:38.814Z,11.54
2023-04-03T14:16:44.325Z,11.37
2023-04-03T14:17:47.618Z,11.38
2023-04-03T14:18:50.488Z,11.38
2023-04-03T14:19:55.544Z,11.39
2023-04-03T14:20:58.212Z,11.38
2023-04-03T14:22:02.784Z,11.38
2023-04-03T14:23:05.138Z,11.37
2023-04-03T14:24:07.362Z,11.36
2023-04-03T14:25:09.433Z,11.35
2023-04-03T14:27:37.896Z,11.33
2023-04-03T14:28:43.916Z,11.31
2023-04-03T14:29:46.757Z,11.27
2023-04-03T14:30:51.167Z,11.26
2023-04-03T14:32:07.303Z,11.23
2023-04-03T14:32:59.935Z,11.20
2023-04-03T14:34:02.568Z,11.19
2023-04-03T14:35:05.415Z,11.16
2023-04-03T14:36:23.624Z,11.15
2023-04-03T14:37:29.016Z,11.16
2023-04-03T14:38:31.654Z,11.15
2023-04-03T14:39:33.829Z,11.15
2023-04-03T14:40:36.337Z,11.14
2023-04-03T14:41:39.372Z,11.13
2023-04-03T14:42:41.943Z,11.14
2023-04-03T14:43:45.445Z,11.13
2023-04-03T14:44:48.853Z,11.12
2023-04-03T14:45:51.742Z,11.13
2023-04-03T14:46:57.053Z,11.16
2023-04-03T14:47:59.645Z,11.19
2023-04-03T14:49:02.039Z,11.24
2023-04-03T14:50:08.047Z,11.28
2023-04-03T14:52:55.532Z,11.46
2023-04-03T14:53:58.111Z,11.32
2023-04-03T14:55:02.268Z,11.31
2023-04-03T14:56:14.394Z,11.31
2023-04-03T14:57:16.862Z,11.31
2023-04-03T14:58:20.896Z,11.30
2023-04-03T14:59:24.175Z,11.28
2023-04-03T15:00:27.109Z,11.26
2023-04-03T15:01:29.200Z,11.24
2023-04-03T15:02:39.179Z,11.22
2023-04-03T15:03:41.781Z,11.21
2023-04-03T15:04:44.020Z,11.20
2023-04-03T15:05:50.486Z,11.18
2023-04-03T15:06:53.283Z,11.18
2023-04-03T15:07:58.255Z,11.16
2023-04-03T15:09:01.012Z,11.13
2023-04-03T15:10:16.050Z,11.11
2023-04-03T15:11:19.014Z,11.10
2023-04-03T15:12:21.136Z,11.08
2023-04-03T15:13:24.301Z,11.07
2023-04-03T15:14:36.148Z,11.03
2023-04-03T15:15:31.329Z,11.04
2023-04-03T15:16:33.918Z,11.03
2023-04-03T15:17:37.469Z,11.04
2023-04-03T15:18:39.953Z,11.03
2023-04-03T15:19:43.169Z,11.03
2023-04-03T15:20:45.825Z,11.03
2023-04-03T15:21:48.455Z,11.01
2023-04-03T15:22:50.426Z,11.02
2023-04-03T15:23:52.492Z,11.00
2023-04-03T15:24:54.712Z,10.98
2023-04-03T15:25:58.944Z,10.96
2023-04-03T15:27:01.775Z,10.96
2023-04-03T15:28:04.172Z,10.97
2023-04-03T15:29:06.374Z,10.95
2023-04-03T15:30:16.064Z,10.94
2023-04-03T15:31:18.338Z,10.92
2023-04-03T15:32:20.695Z,10.91
2023-04-03T15:34:37.782Z,10.98
2023-04-03T15:35:41.531Z,10.83
2023-04-03T15:36:44.128Z,10.83
2023-04-03T15:37:46.443Z,10.86
2023-04-03T15:38:48.503Z,10.83
2023-04-03T15:39:51.443Z,10.82
2023-04-03T15:40:56.184Z,10.82
2023-04-03T15:41:59.056Z,10.82